シンガポール/チャンギ の空港の天気 - METARとTAF

シンガポール・チャンギ国際空港 ( WSSS / SIN ) - シンガポール Changi
飛行場実況気象(Metar)
観測時間05/29 07:30 SGT (05/28 23:30 UTC)
風向・風速南南西 2m/s
視程9000m
天気現象
少しの雲 雲底高度 520m
全天の8割程度の雲 雲底高度 4570m
気温28℃
湿度79%
気圧1008hPa
METARWSSS 282330Z 21003KT 180V240 9000 FEW017 BKN150 28/24 Q1008 NOSIG
過去の天気等 Google飛行場航空写真 Wunderground天気予報

過去48時間のMETAR

飛行場予報(TAF)
発表時間: 5/29 07:00 SGT (5/28 23:00 UTC)
予報対象時間: 29日8時 SGT ~ 30日14時 SGT
風向・風速南西 4m/s
視程10km以上
少しの雲 雲底高度 460m
全天の4割程度の雲 雲底高度 610m
TAF WSSS 282300Z 2900/3006 22007KT 9999 FEW015 SCT020